• Join FlightAware (Why Join?)
  • Login
  • US Flag 
08:44AM EDT


 

Airport Tracker/Info


-or-


 

Live Flight TrackerFlight Track Log ✈ SVA1488 ✈ 17-Apr-2014 ✈ OEPA / AQI - OERK / RUH

Flight Track Log - Related Links

Times and Time Zones

All times are in EDT time to prevent confusion due to time zone crossing. See the SVA1488 flight status page for this flight to view local times or setup timezone preferences in your user account.

Time Position Orientation Groundspeed Altitude Reporting Facility
EDT Latitude Longitude Course Direction KTS MPH feet Rate Location/Type
08:45AM 27.9980 46.1839 171° South  Level Estimated
08:46AM 27.9137 46.1986 171° South  Level Estimated
08:47AM 27.8293 46.2132 171° South  Level Estimated
08:48AM 27.7450 46.2279 171° South  Level Estimated
08:49AM 27.6607 46.2424 171° South  Level Estimated
08:50AM 27.5764 46.2570 171° South  Level Estimated
08:51AM 27.4921 46.2715 171° South  Level Estimated
08:52AM 27.4077 46.2861 171° South  Level Estimated
08:53AM 27.3234 46.3006 171° South  Level Estimated
08:54AM 27.2391 46.3151 171° South  Level Estimated
08:55AM 27.1548 46.3295 171° South  Level Estimated
08:56AM 27.0704 46.3439 171° South  Level Estimated
08:57AM 26.9861 46.3584 171° South  Level Estimated
08:58AM 26.9018 46.3728 171° South  Level Estimated
08:59AM 26.8175 46.3871 171° South  Level Estimated
09:00AM 26.7331 46.4015 171° South  Level Estimated
09:01AM 26.6488 46.4158 171° South  Level Estimated
09:02AM 26.5645 46.4301 171° South  Level Estimated
09:03AM 26.4801 46.4444 171° South  Level Estimated
09:04AM 26.3958 46.4587 171° South  Level Estimated
09:05AM 26.3114 46.4729 171° South  Level Estimated
09:06AM 26.2271 46.4871 171° South  Level Estimated
09:07AM 26.1428 46.5013 171° South  Level Estimated
09:08AM 26.0584 46.5155 171° South  Level Estimated
09:09AM 25.9741 46.5297 171° South  Level Estimated
09:10AM 25.8897 46.5438 171° South  Level Estimated
09:11AM 25.8054 46.5579 171° South  Level Estimated
09:12AM 25.7210 46.5721 171° South  Level Estimated
09:13AM 25.6367 46.5861 171° South  Level Estimated
09:14AM 25.5523 46.6002 171° South  Level Estimated
09:15AM 25.4680 46.6142 171° South  Level Estimated
09:16AM 25.3836 46.6283 171° South  Level Estimated
09:17AM 25.2992 46.6423 171° South  Level Estimated
09:18AM 25.2149 46.6562 171° South  Level Estimated
09:19AM 25.1305 46.6702 171° South  Level Estimated
09:20AM 25.0462 46.6842 171° South  Level Estimated
09:21AM 24.9618 46.6981 171° South  Level Estimated
09:22AM 24.9576 46.6988 171° South  Level Estimated
09:23AM 24.9576 46.6988 North  Level Estimated
09:24AM 24.9576 46.6988 North  Level Estimated
09:25AM 24.9576 46.6988 North  Level Estimated
09:26AM 24.9576 46.6988 North  Level Estimated